KWWD/WWD METAR and TAF weather

Enter ICAO airport designator
Station Type Date Time Source
KWWD METAR 2020/05/30 04:56 UTC NOAA

KWWD 300456Z AUTO 19007KT 10SM FEW003 OVC009 19/19 A2992 RMK AO2 RAE26 SLP134 P0000 T01940189 402670172


Station Type Date Time Source
KWWD Decoded METAR 2020/05/30 04:56 UTC NOAA

Wildwood, Cape May County Airport, NJ, United States (KWWD) 39-01N 074-55W
May 30, 2020 - 12:56 AM EDT / 2020.05.30 0456 UTC
Wind: from the S (190 degrees) at 8 MPH (7 KT):0
Visibility: 10 mile(s):0
Sky conditions: overcast
Precipitation last hour: A trace
Temperature: 66.9 F (19.4 C)
Dew Point: 66.0 F (18.9 C)
Relative Humidity: 96%
Pressure (altimeter): 29.92 in. Hg (1013 hPa)
ob: KWWD 300456Z AUTO 19007KT 10SM FEW003 OVC009 19/19 A2992 RMK AO2 RAE26 SLP134 P0000 T01940189 402670172
cycle: 5

Station Type Date Time Source
KWWD TAF UTC NOAA

Error!

Example: see airport list